sensor_id;sensor_type;location;lat;lon;timestamp;temperature;humidity
78438;SHT31;67736;51.978;5.656;2023-10-08T00:02:02;20.2;70.6
78438;SHT31;67736;51.978;5.656;2023-10-08T00:04:33;20.2;70.7
78438;SHT31;67736;51.978;5.656;2023-10-08T00:07:05;20.2;70.8
78438;SHT31;67736;51.978;5.656;2023-10-08T00:09:36;20.2;70.9
78438;SHT31;67736;51.978;5.656;2023-10-08T00:12:07;20.2;71.0
78438;SHT31;67736;51.978;5.656;2023-10-08T00:14:37;20.2;71.1
78438;SHT31;67736;51.978;5.656;2023-10-08T00:17:13;20.1;71.1
78438;SHT31;67736;51.978;5.656;2023-10-08T00:19:43;20.1;71.2
78438;SHT31;67736;51.978;5.656;2023-10-08T00:22:13;20.1;71.4
78438;SHT31;67736;51.978;5.656;2023-10-08T00:24:45;20.1;71.4
78438;SHT31;67736;51.978;5.656;2023-10-08T00:27:17;20.1;71.6
78438;SHT31;67736;51.978;5.656;2023-10-08T00:29:49;20.1;71.7
78438;SHT31;67736;51.978;5.656;2023-10-08T00:32:18;20.1;71.8
78438;SHT31;67736;51.978;5.656;2023-10-08T00:34:49;20.0;71.9
78438;SHT31;67736;51.978;5.656;2023-10-08T00:37:18;20.0;72.0
78438;SHT31;67736;51.978;5.656;2023-10-08T00:39:51;20.0;72.0
78438;SHT31;67736;51.978;5.656;2023-10-08T00:42:24;20.0;72.1
78438;SHT31;67736;51.978;5.656;2023-10-08T00:44:56;20.0;72.1
78438;SHT31;67736;51.978;5.656;2023-10-08T00:47:28;20.0;72.1
78438;SHT31;67736;51.978;5.656;2023-10-08T00:50:03;20.0;72.2
78438;SHT31;67736;51.978;5.656;2023-10-08T00:52:36;20.0;72.3
78438;SHT31;67736;51.978;5.656;2023-10-08T00:55:13;20.0;72.3
78438;SHT31;67736;51.978;5.656;2023-10-08T00:57:57;20.0;72.4
78438;SHT31;67736;51.978;5.656;2023-10-08T01:00:32;20.0;72.4
78438;SHT31;67736;51.978;5.656;2023-10-08T01:03:07;20.0;72.4
78438;SHT31;67736;51.978;5.656;2023-10-08T01:05:42;20.0;72.4
78438;SHT31;67736;51.978;5.656;2023-10-08T01:08:15;20.0;72.4
78438;SHT31;67736;51.978;5.656;2023-10-08T01:10:50;20.0;72.3
78438;SHT31;67736;51.978;5.656;2023-10-08T01:13:26;20.0;72.4
78438;SHT31;67736;51.978;5.656;2023-10-08T01:16:00;20.0;72.4
78438;SHT31;67736;51.978;5.656;2023-10-08T01:18:30;20.0;72.4
78438;SHT31;67736;51.978;5.656;2023-10-08T01:21:02;20.0;72.3
78438;SHT31;67736;51.978;5.656;2023-10-08T01:23:40;20.0;72.3
78438;SHT31;67736;51.978;5.656;2023-10-08T01:26:10;20.1;72.3
78438;SHT31;67736;51.978;5.656;2023-10-08T01:28:42;20.1;72.3
78438;SHT31;67736;51.978;5.656;2023-10-08T01:31:12;20.1;72.3
78438;SHT31;67736;51.978;5.656;2023-10-08T01:33:42;20.1;72.2
78438;SHT31;67736;51.978;5.656;2023-10-08T01:36:17;20.1;72.2
78438;SHT31;67736;51.978;5.656;2023-10-08T01:38:47;20.1;72.2
78438;SHT31;67736;51.978;5.656;2023-10-08T01:41:17;20.1;72.1
78438;SHT31;67736;51.978;5.656;2023-10-08T01:43:56;20.1;72.1
78438;SHT31;67736;51.978;5.656;2023-10-08T01:46:27;20.1;72.1
78438;SHT31;67736;51.978;5.656;2023-10-08T01:48:59;20.1;72.2
78438;SHT31;67736;51.978;5.656;2023-10-08T01:51:32;20.1;72.1
78438;SHT31;67736;51.978;5.656;2023-10-08T01:54:13;20.1;72.1
78438;SHT31;67736;51.978;5.656;2023-10-08T01:56:45;20.1;72.2
78438;SHT31;67736;51.978;5.656;2023-10-08T01:59:15;20.1;72.2
78438;SHT31;67736;51.978;5.656;2023-10-08T02:01:45;20.1;72.2
78438;SHT31;67736;51.978;5.656;2023-10-08T02:04:15;20.1;72.2
78438;SHT31;67736;51.978;5.656;2023-10-08T02:06:44;20.1;72.2
78438;SHT31;67736;51.978;5.656;2023-10-08T02:09:15;20.1;72.2
78438;SHT31;67736;51.978;5.656;2023-10-08T02:11:47;20.1;72.3
78438;SHT31;67736;51.978;5.656;2023-10-08T02:14:18;20.1;72.3
78438;SHT31;67736;51.978;5.656;2023-10-08T02:16:50;20.1;72.3
78438;SHT31;67736;51.978;5.656;2023-10-08T02:19:25;20.1;72.3
78438;SHT31;67736;51.978;5.656;2023-10-08T02:21:57;20.1;72.3
78438;SHT31;67736;51.978;5.656;2023-10-08T02:24:27;20.0;72.3
78438;SHT31;67736;51.978;5.656;2023-10-08T02:26:58;20.0;72.3
78438;SHT31;67736;51.978;5.656;2023-10-08T02:29:29;20.0;72.3
78438;SHT31;67736;51.978;5.656;2023-10-08T02:31:59;20.0;72.4
78438;SHT31;67736;51.978;5.656;2023-10-08T02:34:29;20.0;72.3
78438;SHT31;67736;51.978;5.656;2023-10-08T02:36:58;20.0;72.3
78438;SHT31;67736;51.978;5.656;2023-10-08T02:39:28;20.0;72.3
78438;SHT31;67736;51.978;5.656;2023-10-08T02:41:58;20.0;72.3
78438;SHT31;67736;51.978;5.656;2023-10-08T02:44:28;20.0;72.3
78438;SHT31;67736;51.978;5.656;2023-10-08T02:46:59;19.9;72.4
78438;SHT31;67736;51.978;5.656;2023-10-08T02:49:28;19.9;72.6
78438;SHT31;67736;51.978;5.656;2023-10-08T02:52:01;19.9;72.7
78438;SHT31;67736;51.978;5.656;2023-10-08T02:54:31;19.9;72.7
78438;SHT31;67736;51.978;5.656;2023-10-08T02:57:04;19.9;72.8
78438;SHT31;67736;51.978;5.656;2023-10-08T02:59:38;19.8;72.8
78438;SHT31;67736;51.978;5.656;2023-10-08T03:02:13;19.8;72.8
78438;SHT31;67736;51.978;5.656;2023-10-08T03:04:46;19.8;72.8
78438;SHT31;67736;51.978;5.656;2023-10-08T03:07:19;19.8;72.9
78438;SHT31;67736;51.978;5.656;2023-10-08T03:09:56;19.8;73.1
78438;SHT31;67736;51.978;5.656;2023-10-08T03:12:33;19.8;73.0
78438;SHT31;67736;51.978;5.656;2023-10-08T03:15:06;19.8;73.1
78438;SHT31;67736;51.978;5.656;2023-10-08T03:17:47;19.8;73.1
78438;SHT31;67736;51.978;5.656;2023-10-08T03:20:18;19.7;73.0
78438;SHT31;67736;51.978;5.656;2023-10-08T03:23:03;19.7;73.1
78438;SHT31;67736;51.978;5.656;2023-10-08T03:25:39;19.7;73.1
78438;SHT31;67736;51.978;5.656;2023-10-08T03:28:10;19.7;73.1
78438;SHT31;67736;51.978;5.656;2023-10-08T03:30:43;19.7;73.2
78438;SHT31;67736;51.978;5.656;2023-10-08T03:33:19;19.7;73.2
78438;SHT31;67736;51.978;5.656;2023-10-08T03:35:52;19.7;73.1
78438;SHT31;67736;51.978;5.656;2023-10-08T03:38:23;19.7;73.1
78438;SHT31;67736;51.978;5.656;2023-10-08T03:41:02;19.7;73.2
78438;SHT31;67736;51.978;5.656;2023-10-08T03:43:36;19.7;73.0
78438;SHT31;67736;51.978;5.656;2023-10-08T03:46:16;19.7;72.9
78438;SHT31;67736;51.978;5.656;2023-10-08T03:48:49;19.7;73.0
78438;SHT31;67736;51.978;5.656;2023-10-08T03:51:19;19.7;73.1
78438;SHT31;67736;51.978;5.656;2023-10-08T03:53:50;19.7;73.0
78438;SHT31;67736;51.978;5.656;2023-10-08T03:56:35;19.7;73.1
78438;SHT31;67736;51.978;5.656;2023-10-08T03:59:05;19.7;73.2
78438;SHT31;67736;51.978;5.656;2023-10-08T04:01:40;19.7;73.2
78438;SHT31;67736;51.978;5.656;2023-10-08T04:04:11;19.7;73.3
78438;SHT31;67736;51.978;5.656;2023-10-08T04:06:43;19.7;73.2
78438;SHT31;67736;51.978;5.656;2023-10-08T04:09:19;19.7;73.2
78438;SHT31;67736;51.978;5.656;2023-10-08T04:11:53;19.7;73.3
78438;SHT31;67736;51.978;5.656;2023-10-08T04:14:24;19.7;73.3
78438;SHT31;67736;51.978;5.656;2023-10-08T04:16:55;19.7;73.3
78438;SHT31;67736;51.978;5.656;2023-10-08T04:19:26;19.7;73.3
78438;SHT31;67736;51.978;5.656;2023-10-08T04:21:56;19.7;73.2
78438;SHT31;67736;51.978;5.656;2023-10-08T04:24:27;19.7;73.2
78438;SHT31;67736;51.978;5.656;2023-10-08T04:27:02;19.7;73.1
78438;SHT31;67736;51.978;5.656;2023-10-08T04:29:37;19.7;73.0
78438;SHT31;67736;51.978;5.656;2023-10-08T04:32:09;19.8;73.0
78438;SHT31;67736;51.978;5.656;2023-10-08T04:34:45;19.8;72.9
78438;SHT31;67736;51.978;5.656;2023-10-08T04:37:17;19.8;72.9
78438;SHT31;67736;51.978;5.656;2023-10-08T04:39:48;19.8;73.0
78438;SHT31;67736;51.978;5.656;2023-10-08T04:42:23;19.8;72.8
78438;SHT31;67736;51.978;5.656;2023-10-08T04:44:54;19.8;72.7
78438;SHT31;67736;51.978;5.656;2023-10-08T04:47:26;19.8;72.8
78438;SHT31;67736;51.978;5.656;2023-10-08T04:50:03;19.8;72.9
78438;SHT31;67736;51.978;5.656;2023-10-08T04:52:35;19.8;72.9
78438;SHT31;67736;51.978;5.656;2023-10-08T04:55:10;19.8;72.9
78438;SHT31;67736;51.978;5.656;2023-10-08T04:57:46;19.8;72.9
78438;SHT31;67736;51.978;5.656;2023-10-08T05:00:18;19.8;73.0
78438;SHT31;67736;51.978;5.656;2023-10-08T05:02:54;19.8;73.0
78438;SHT31;67736;51.978;5.656;2023-10-08T05:05:28;19.8;73.0
78438;SHT31;67736;51.978;5.656;2023-10-08T05:08:03;19.8;73.1
78438;SHT31;67736;51.978;5.656;2023-10-08T05:10:51;19.8;73.3
78438;SHT31;67736;51.978;5.656;2023-10-08T05:13:49;19.8;73.1
78438;SHT31;67736;51.978;5.656;2023-10-08T05:16:29;19.8;72.8
78438;SHT31;67736;51.978;5.656;2023-10-08T05:19:10;19.7;72.2
78438;SHT31;67736;51.978;5.656;2023-10-08T05:22:00;19.7;71.1
78438;SHT31;67736;51.978;5.656;2023-10-08T05:24:40;19.7;70.4
78438;SHT31;67736;51.978;5.656;2023-10-08T05:27:14;19.6;69.7
78438;SHT31;67736;51.978;5.656;2023-10-08T05:30:15;19.5;69.9
78438;SHT31;67736;51.978;5.656;2023-10-08T05:32:49;19.5;69.7
78438;SHT31;67736;51.978;5.656;2023-10-08T05:35:41;19.4;69.8
78438;SHT31;67736;51.978;5.656;2023-10-08T05:38:28;19.3;69.1
78438;SHT31;67736;51.978;5.656;2023-10-08T05:41:12;19.2;69.2
78438;SHT31;67736;51.978;5.656;2023-10-08T05:44:05;19.2;68.9
78438;SHT31;67736;51.978;5.656;2023-10-08T05:46:49;19.1;69.2
78438;SHT31;67736;51.978;5.656;2023-10-08T05:49:27;19.0;68.6
78438;SHT31;67736;51.978;5.656;2023-10-08T05:52:10;19.0;68.1
78438;SHT31;67736;51.978;5.656;2023-10-08T05:55:02;18.9;67.9
78438;SHT31;67736;51.978;5.656;2023-10-08T05:57:50;18.9;68.4
78438;SHT31;67736;51.978;5.656;2023-10-08T06:00:26;18.8;68.5
78438;SHT31;67736;51.978;5.656;2023-10-08T06:03:04;18.8;68.2
78438;SHT31;67736;51.978;5.656;2023-10-08T06:05:44;18.7;68.5
78438;SHT31;67736;51.978;5.656;2023-10-08T06:08:19;18.6;68.0
78438;SHT31;67736;51.978;5.656;2023-10-08T06:10:54;18.5;68.0
78438;SHT31;67736;51.978;5.656;2023-10-08T06:13:28;18.4;68.5
78438;SHT31;67736;51.978;5.656;2023-10-08T06:16:04;18.3;68.7
78438;SHT31;67736;51.978;5.656;2023-10-08T06:18:36;18.3;68.7
78438;SHT31;67736;51.978;5.656;2023-10-08T06:21:07;18.2;68.9
78438;SHT31;67736;51.978;5.656;2023-10-08T06:23:41;18.1;69.3
78438;SHT31;67736;51.978;5.656;2023-10-08T06:26:11;18.1;68.9
78438;SHT31;67736;51.978;5.656;2023-10-08T06:28:48;18.0;69.0
78438;SHT31;67736;51.978;5.656;2023-10-08T06:31:23;18.0;69.5
78438;SHT31;67736;51.978;5.656;2023-10-08T06:33:54;18.0;68.1
78438;SHT31;67736;51.978;5.656;2023-10-08T06:36:26;18.0;67.8
78438;SHT31;67736;51.978;5.656;2023-10-08T06:38:57;17.9;68.2
78438;SHT31;67736;51.978;5.656;2023-10-08T06:41:27;17.9;68.5
78438;SHT31;67736;51.978;5.656;2023-10-08T06:44:01;17.8;68.0
78438;SHT31;67736;51.978;5.656;2023-10-08T06:46:32;17.8;68.2
78438;SHT31;67736;51.978;5.656;2023-10-08T06:49:03;17.7;68.4
78438;SHT31;67736;51.978;5.656;2023-10-08T06:51:37;17.7;68.4
78438;SHT31;67736;51.978;5.656;2023-10-08T06:54:11;17.6;68.4
78438;SHT31;67736;51.978;5.656;2023-10-08T06:56:41;17.6;68.5
78438;SHT31;67736;51.978;5.656;2023-10-08T06:59:15;17.6;68.5
78438;SHT31;67736;51.978;5.656;2023-10-08T07:01:45;17.5;68.7
78438;SHT31;67736;51.978;5.656;2023-10-08T07:04:18;17.5;68.6
78438;SHT31;67736;51.978;5.656;2023-10-08T07:06:49;17.5;68.4
78438;SHT31;67736;51.978;5.656;2023-10-08T07:09:18;17.4;68.3
78438;SHT31;67736;51.978;5.656;2023-10-08T07:11:58;17.4;68.4
78438;SHT31;67736;51.978;5.656;2023-10-08T07:14:33;17.4;68.6
78438;SHT31;67736;51.978;5.656;2023-10-08T07:17:02;17.3;68.5
78438;SHT31;67736;51.978;5.656;2023-10-08T07:19:35;17.3;68.7
78438;SHT31;67736;51.978;5.656;2023-10-08T07:22:08;17.3;69.4
78438;SHT31;67736;51.978;5.656;2023-10-08T07:24:49;17.3;68.9
78438;SHT31;67736;51.978;5.656;2023-10-08T07:27:20;17.2;68.6
78438;SHT31;67736;51.978;5.656;2023-10-08T07:29:57;17.2;69.0
78438;SHT31;67736;51.978;5.656;2023-10-08T07:32:29;17.2;68.7
78438;SHT31;67736;51.978;5.656;2023-10-08T07:34:59;17.2;68.9
78438;SHT31;67736;51.978;5.656;2023-10-08T07:37:38;17.2;69.2
78438;SHT31;67736;51.978;5.656;2023-10-08T07:40:08;17.2;68.8
78438;SHT31;67736;51.978;5.656;2023-10-08T07:42:40;17.2;68.7
78438;SHT31;67736;51.978;5.656;2023-10-08T07:45:11;17.2;69.1
78438;SHT31;67736;51.978;5.656;2023-10-08T07:47:44;17.1;68.9
78438;SHT31;67736;51.978;5.656;2023-10-08T07:50:15;17.1;68.7
78438;SHT31;67736;51.978;5.656;2023-10-08T07:52:48;17.1;69.0
78438;SHT31;67736;51.978;5.656;2023-10-08T07:55:18;17.1;68.7
78438;SHT31;67736;51.978;5.656;2023-10-08T07:57:49;17.1;68.7
78438;SHT31;67736;51.978;5.656;2023-10-08T08:00:19;17.1;68.8
78438;SHT31;67736;51.978;5.656;2023-10-08T08:02:53;17.1;68.7
78438;SHT31;67736;51.978;5.656;2023-10-08T08:05:25;17.1;69.2
78438;SHT31;67736;51.978;5.656;2023-10-08T08:07:54;17.2;68.6
78438;SHT31;67736;51.978;5.656;2023-10-08T08:10:32;17.2;68.6
78438;SHT31;67736;51.978;5.656;2023-10-08T08:13:05;17.2;68.5
78438;SHT31;67736;51.978;5.656;2023-10-08T08:15:36;17.2;68.6
78438;SHT31;67736;51.978;5.656;2023-10-08T08:18:10;17.2;68.6
78438;SHT31;67736;51.978;5.656;2023-10-08T08:20:47;17.2;68.7
78438;SHT31;67736;51.978;5.656;2023-10-08T08:23:16;17.3;68.5
78438;SHT31;67736;51.978;5.656;2023-10-08T08:25:49;17.3;68.1
78438;SHT31;67736;51.978;5.656;2023-10-08T08:28:32;17.3;68.1
78438;SHT31;67736;51.978;5.656;2023-10-08T08:31:06;17.4;67.6
78438;SHT31;67736;51.978;5.656;2023-10-08T08:33:41;17.4;67.8
78438;SHT31;67736;51.978;5.656;2023-10-08T08:36:30;17.4;68.0
78438;SHT31;67736;51.978;5.656;2023-10-08T08:39:03;17.5;68.1
78438;SHT31;67736;51.978;5.656;2023-10-08T08:41:38;17.5;67.7
78438;SHT31;67736;51.978;5.656;2023-10-08T08:44:10;17.5;67.6
78438;SHT31;67736;51.978;5.656;2023-10-08T08:46:41;17.6;67.4
78438;SHT31;67736;51.978;5.656;2023-10-08T08:49:11;17.6;67.4
78438;SHT31;67736;51.978;5.656;2023-10-08T08:51:42;17.6;67.4
78438;SHT31;67736;51.978;5.656;2023-10-08T08:54:16;17.6;68.3
78438;SHT31;67736;51.978;5.656;2023-10-08T08:56:48;17.6;67.6
78438;SHT31;67736;51.978;5.656;2023-10-08T08:59:18;17.6;68.0
78438;SHT31;67736;51.978;5.656;2023-10-08T09:01:50;17.6;67.7
78438;SHT31;67736;51.978;5.656;2023-10-08T09:04:28;17.6;67.7
78438;SHT31;67736;51.978;5.656;2023-10-08T09:06:58;17.6;67.7
78438;SHT31;67736;51.978;5.656;2023-10-08T09:09:34;17.6;68.2
78438;SHT31;67736;51.978;5.656;2023-10-08T09:12:07;17.6;68.3
78438;SHT31;67736;51.978;5.656;2023-10-08T09:14:37;17.5;68.6
78438;SHT31;67736;51.978;5.656;2023-10-08T09:17:07;17.5;69.0
78438;SHT31;67736;51.978;5.656;2023-10-08T09:19:39;17.4;69.2
78438;SHT31;67736;51.978;5.656;2023-10-08T09:22:11;17.4;69.6
78438;SHT31;67736;51.978;5.656;2023-10-08T09:24:48;17.4;69.6
78438;SHT31;67736;51.978;5.656;2023-10-08T09:27:19;17.4;70.1
78438;SHT31;67736;51.978;5.656;2023-10-08T09:29:51;17.3;70.5
78438;SHT31;67736;51.978;5.656;2023-10-08T09:32:20;17.3;70.3
78438;SHT31;67736;51.978;5.656;2023-10-08T09:34:53;17.2;70.4
78438;SHT31;67736;51.978;5.656;2023-10-08T09:37:23;17.2;70.4
78438;SHT31;67736;51.978;5.656;2023-10-08T09:39:54;17.2;70.8
78438;SHT31;67736;51.978;5.656;2023-10-08T09:42:25;17.2;71.1
78438;SHT31;67736;51.978;5.656;2023-10-08T09:44:57;17.1;70.7
78438;SHT31;67736;51.978;5.656;2023-10-08T09:47:31;17.1;71.3
78438;SHT31;67736;51.978;5.656;2023-10-08T09:50:05;17.2;70.2
78438;SHT31;67736;51.978;5.656;2023-10-08T09:52:44;17.2;69.1
78438;SHT31;67736;51.978;5.656;2023-10-08T09:55:18;17.2;68.9
78438;SHT31;67736;51.978;5.656;2023-10-08T09:57:47;17.3;68.6
78438;SHT31;67736;51.978;5.656;2023-10-08T10:00:18;17.3;68.4
78438;SHT31;67736;51.978;5.656;2023-10-08T10:02:53;17.4;68.2
78438;SHT31;67736;51.978;5.656;2023-10-08T10:05:23;17.4;67.5
78438;SHT31;67736;51.978;5.656;2023-10-08T10:07:55;17.5;67.3
78438;SHT31;67736;51.978;5.656;2023-10-08T10:10:30;17.5;67.1
78438;SHT31;67736;51.978;5.656;2023-10-08T10:13:03;17.5;66.8
78438;SHT31;67736;51.978;5.656;2023-10-08T10:15:36;17.6;66.7
78438;SHT31;67736;51.978;5.656;2023-10-08T10:18:13;17.6;66.1
78438;SHT31;67736;51.978;5.656;2023-10-08T10:20:47;17.6;66.1
78438;SHT31;67736;51.978;5.656;2023-10-08T10:23:38;17.6;65.9
78438;SHT31;67736;51.978;5.656;2023-10-08T10:26:24;17.6;64.9
78438;SHT31;67736;51.978;5.656;2023-10-08T10:29:22;17.6;64.3
78438;SHT31;67736;51.978;5.656;2023-10-08T10:32:00;17.7;64.3
78438;SHT31;67736;51.978;5.656;2023-10-08T10:34:32;17.7;64.7
78438;SHT31;67736;51.978;5.656;2023-10-08T10:37:03;17.7;64.5
78438;SHT31;67736;51.978;5.656;2023-10-08T10:39:36;17.7;64.0
78438;SHT31;67736;51.978;5.656;2023-10-08T10:42:09;17.7;64.3
78438;SHT31;67736;51.978;5.656;2023-10-08T10:44:46;17.8;64.6
78438;SHT31;67736;51.978;5.656;2023-10-08T10:47:17;17.8;64.6
78438;SHT31;67736;51.978;5.656;2023-10-08T10:50:01;17.8;64.0
78438;SHT31;67736;51.978;5.656;2023-10-08T10:52:47;17.9;64.0
78438;SHT31;67736;51.978;5.656;2023-10-08T10:55:21;17.9;64.3
78438;SHT31;67736;51.978;5.656;2023-10-08T10:57:59;17.9;64.0
78438;SHT31;67736;51.978;5.656;2023-10-08T11:00:44;18.0;64.0
78438;SHT31;67736;51.978;5.656;2023-10-08T11:03:27;18.1;63.9
78438;SHT31;67736;51.978;5.656;2023-10-08T11:06:00;18.1;64.0
78438;SHT31;67736;51.978;5.656;2023-10-08T11:08:40;18.2;63.8
78438;SHT31;67736;51.978;5.656;2023-10-08T11:11:16;18.2;63.6
78438;SHT31;67736;51.978;5.656;2023-10-08T11:13:46;18.3;63.6
78438;SHT31;67736;51.978;5.656;2023-10-08T11:16:23;18.3;63.9
78438;SHT31;67736;51.978;5.656;2023-10-08T11:18:54;18.3;64.4
78438;SHT31;67736;51.978;5.656;2023-10-08T11:21:30;18.3;63.9
78438;SHT31;67736;51.978;5.656;2023-10-08T11:24:04;18.4;63.5
78438;SHT31;67736;51.978;5.656;2023-10-08T11:26:41;18.4;63.5
78438;SHT31;67736;51.978;5.656;2023-10-08T11:29:18;18.5;63.2
78438;SHT31;67736;51.978;5.656;2023-10-08T11:31:55;18.5;63.0
78438;SHT31;67736;51.978;5.656;2023-10-08T11:34:33;18.5;63.1
78438;SHT31;67736;51.978;5.656;2023-10-08T11:37:06;18.6;62.6
78438;SHT31;67736;51.978;5.656;2023-10-08T11:39:43;18.6;62.8
78438;SHT31;67736;51.978;5.656;2023-10-08T11:42:14;18.7;62.6
78438;SHT31;67736;51.978;5.656;2023-10-08T11:45:00;18.7;62.4
78438;SHT31;67736;51.978;5.656;2023-10-08T11:47:34;18.7;62.4
78438;SHT31;67736;51.978;5.656;2023-10-08T11:50:04;18.8;62.4
78438;SHT31;67736;51.978;5.656;2023-10-08T11:52:44;18.8;62.2
78438;SHT31;67736;51.978;5.656;2023-10-08T11:55:15;18.8;61.9
78438;SHT31;67736;51.978;5.656;2023-10-08T11:57:48;18.9;61.3
78438;SHT31;67736;51.978;5.656;2023-10-08T12:00:19;18.9;61.4
78438;SHT31;67736;51.978;5.656;2023-10-08T12:02:53;18.9;61.4
78438;SHT31;67736;51.978;5.656;2023-10-08T12:05:25;18.9;61.5
78438;SHT31;67736;51.978;5.656;2023-10-08T12:07:56;18.9;61.7
78438;SHT31;67736;51.978;5.656;2023-10-08T12:10:27;18.9;61.6
78438;SHT31;67736;51.978;5.656;2023-10-08T12:13:01;18.9;61.4
78438;SHT31;67736;51.978;5.656;2023-10-08T12:15:33;18.9;61.4
78438;SHT31;67736;51.978;5.656;2023-10-08T12:18:06;18.8;61.6
78438;SHT31;67736;51.978;5.656;2023-10-08T12:20:42;18.8;61.9
78438;SHT31;67736;51.978;5.656;2023-10-08T12:23:14;18.8;62.0
78438;SHT31;67736;51.978;5.656;2023-10-08T12:25:53;18.8;61.7
78438;SHT31;67736;51.978;5.656;2023-10-08T12:28:24;18.8;62.1
78438;SHT31;67736;51.978;5.656;2023-10-08T12:30:55;18.8;62.5
78438;SHT31;67736;51.978;5.656;2023-10-08T12:33:25;18.8;62.4
78438;SHT31;67736;51.978;5.656;2023-10-08T12:35:59;18.9;62.4
78438;SHT31;67736;51.978;5.656;2023-10-08T12:38:34;18.9;62.4
78438;SHT31;67736;51.978;5.656;2023-10-08T12:41:04;18.9;62.4
78438;SHT31;67736;51.978;5.656;2023-10-08T12:43:40;19.0;62.3
78438;SHT31;67736;51.978;5.656;2023-10-08T12:46:13;19.0;62.7
78438;SHT31;67736;51.978;5.656;2023-10-08T12:48:52;19.0;62.7
78438;SHT31;67736;51.978;5.656;2023-10-08T12:51:25;19.1;62.6
78438;SHT31;67736;51.978;5.656;2023-10-08T12:54:00;19.1;62.8
78438;SHT31;67736;51.978;5.656;2023-10-08T12:56:35;19.2;62.6
78438;SHT31;67736;51.978;5.656;2023-10-08T12:59:07;19.2;62.5
78438;SHT31;67736;51.978;5.656;2023-10-08T13:01:42;19.3;62.3
78438;SHT31;67736;51.978;5.656;2023-10-08T13:04:13;19.3;62.4
78438;SHT31;67736;51.978;5.656;2023-10-08T13:06:50;19.3;62.5
78438;SHT31;67736;51.978;5.656;2023-10-08T13:09:24;19.4;62.5
78438;SHT31;67736;51.978;5.656;2023-10-08T13:11:56;19.4;62.9
78438;SHT31;67736;51.978;5.656;2023-10-08T13:14:27;19.4;62.9
78438;SHT31;67736;51.978;5.656;2023-10-08T13:16:56;19.4;62.7
78438;SHT31;67736;51.978;5.656;2023-10-08T13:19:26;19.4;63.1
78438;SHT31;67736;51.978;5.656;2023-10-08T13:21:58;19.5;63.5
78438;SHT31;67736;51.978;5.656;2023-10-08T13:24:29;19.5;63.7
78438;SHT31;67736;51.978;5.656;2023-10-08T13:26:59;19.5;63.7
78438;SHT31;67736;51.978;5.656;2023-10-08T13:29:28;19.6;63.9
78438;SHT31;67736;51.978;5.656;2023-10-08T13:32:00;19.6;64.2
78438;SHT31;67736;51.978;5.656;2023-10-08T13:34:31;19.6;63.8
78438;SHT31;67736;51.978;5.656;2023-10-08T13:37:01;19.6;63.8
78438;SHT31;67736;51.978;5.656;2023-10-08T13:39:30;19.7;63.7
78438;SHT31;67736;51.978;5.656;2023-10-08T13:42:02;19.7;63.6
78438;SHT31;67736;51.978;5.656;2023-10-08T13:44:32;19.7;63.4
78438;SHT31;67736;51.978;5.656;2023-10-08T13:47:02;19.7;63.3
78438;SHT31;67736;51.978;5.656;2023-10-08T13:49:33;19.7;63.5
78438;SHT31;67736;51.978;5.656;2023-10-08T13:52:02;19.7;63.3
78438;SHT31;67736;51.978;5.656;2023-10-08T13:54:35;19.7;63.4
78438;SHT31;67736;51.978;5.656;2023-10-08T13:57:09;19.7;63.6
78438;SHT31;67736;51.978;5.656;2023-10-08T13:59:42;19.7;63.6
78438;SHT31;67736;51.978;5.656;2023-10-08T14:02:14;19.7;63.7
78438;SHT31;67736;51.978;5.656;2023-10-08T14:04:46;19.7;63.8
78438;SHT31;67736;51.978;5.656;2023-10-08T14:07:17;19.7;63.9
78438;SHT31;67736;51.978;5.656;2023-10-08T14:09:49;19.7;64.0
78438;SHT31;67736;51.978;5.656;2023-10-08T14:12:20;19.6;64.1
78438;SHT31;67736;51.978;5.656;2023-10-08T14:14:50;19.7;64.2
78438;SHT31;67736;51.978;5.656;2023-10-08T14:17:19;19.7;64.2
78438;SHT31;67736;51.978;5.656;2023-10-08T14:19:56;19.6;64.2
78438;SHT31;67736;51.978;5.656;2023-10-08T14:22:33;19.6;64.4
78438;SHT31;67736;51.978;5.656;2023-10-08T14:25:04;19.6;64.8
78438;SHT31;67736;51.978;5.656;2023-10-08T14:27:38;19.7;64.2
78438;SHT31;67736;51.978;5.656;2023-10-08T14:30:14;19.7;63.8
78438;SHT31;67736;51.978;5.656;2023-10-08T14:32:48;19.7;64.2
78438;SHT31;67736;51.978;5.656;2023-10-08T14:35:18;19.7;64.5
78438;SHT31;67736;51.978;5.656;2023-10-08T14:38:04;19.6;64.3
78438;SHT31;67736;51.978;5.656;2023-10-08T14:40:50;19.6;64.3
78438;SHT31;67736;51.978;5.656;2023-10-08T14:43:35;19.6;64.3
78438;SHT31;67736;51.978;5.656;2023-10-08T14:46:05;19.6;64.4
78438;SHT31;67736;51.978;5.656;2023-10-08T14:48:36;19.5;64.7
78438;SHT31;67736;51.978;5.656;2023-10-08T14:51:08;19.5;65.1
78438;SHT31;67736;51.978;5.656;2023-10-08T14:53:42;19.5;65.2
78438;SHT31;67736;51.978;5.656;2023-10-08T14:56:12;19.4;65.4
78438;SHT31;67736;51.978;5.656;2023-10-08T14:58:43;19.4;65.3
78438;SHT31;67736;51.978;5.656;2023-10-08T15:01:14;19.4;65.6
78438;SHT31;67736;51.978;5.656;2023-10-08T15:03:44;19.4;65.7
78438;SHT31;67736;51.978;5.656;2023-10-08T15:06:14;19.4;65.3
78438;SHT31;67736;51.978;5.656;2023-10-08T15:08:44;19.4;65.4
78438;SHT31;67736;51.978;5.656;2023-10-08T15:11:13;19.4;65.3
78438;SHT31;67736;51.978;5.656;2023-10-08T15:13:45;19.4;65.5
78438;SHT31;67736;51.978;5.656;2023-10-08T15:16:17;19.4;65.8
78438;SHT31;67736;51.978;5.656;2023-10-08T15:18:50;19.3;65.9
78438;SHT31;67736;51.978;5.656;2023-10-08T15:21:20;19.3;66.0
78438;SHT31;67736;51.978;5.656;2023-10-08T15:23:53;19.3;66.2
78438;SHT31;67736;51.978;5.656;2023-10-08T15:26:23;19.3;66.2
78438;SHT31;67736;51.978;5.656;2023-10-08T15:28:53;19.3;66.5
78438;SHT31;67736;51.978;5.656;2023-10-08T15:31:22;19.2;66.7
78438;SHT31;67736;51.978;5.656;2023-10-08T15:33:52;19.2;67.1
78438;SHT31;67736;51.978;5.656;2023-10-08T15:36:22;19.2;67.2
78438;SHT31;67736;51.978;5.656;2023-10-08T15:38:54;19.2;67.2
78438;SHT31;67736;51.978;5.656;2023-10-08T15:41:23;19.3;66.9
78438;SHT31;67736;51.978;5.656;2023-10-08T15:43:53;19.3;67.2
78438;SHT31;67736;51.978;5.656;2023-10-08T15:46:26;19.3;66.9
78438;SHT31;67736;51.978;5.656;2023-10-08T15:48:55;19.3;67.0
78438;SHT31;67736;51.978;5.656;2023-10-08T15:51:25;19.3;66.6
78438;SHT31;67736;51.978;5.656;2023-10-08T15:53:57;19.3;66.8
78438;SHT31;67736;51.978;5.656;2023-10-08T15:56:27;19.3;66.2
78438;SHT31;67736;51.978;5.656;2023-10-08T15:58:56;19.3;66.0
78438;SHT31;67736;51.978;5.656;2023-10-08T16:01:26;19.3;65.8
78438;SHT31;67736;51.978;5.656;2023-10-08T16:03:56;19.3;65.9
78438;SHT31;67736;51.978;5.656;2023-10-08T16:06:25;19.2;65.9
78438;SHT31;67736;51.978;5.656;2023-10-08T16:08:55;19.2;66.1
78438;SHT31;67736;51.978;5.656;2023-10-08T16:11:26;19.2;65.9
78438;SHT31;67736;51.978;5.656;2023-10-08T16:13:57;19.1;66.3
78438;SHT31;67736;51.978;5.656;2023-10-08T16:16:26;19.1;66.3
78438;SHT31;67736;51.978;5.656;2023-10-08T16:18:56;19.1;66.3
78438;SHT31;67736;51.978;5.656;2023-10-08T16:21:25;19.0;66.2
78438;SHT31;67736;51.978;5.656;2023-10-08T16:23:55;19.0;66.3
78438;SHT31;67736;51.978;5.656;2023-10-08T16:26:25;19.0;66.6
78438;SHT31;67736;51.978;5.656;2023-10-08T16:28:55;18.9;66.4
78438;SHT31;67736;51.978;5.656;2023-10-08T16:31:25;18.9;67.2
78438;SHT31;67736;51.978;5.656;2023-10-08T16:33:55;18.9;66.9
78438;SHT31;67736;51.978;5.656;2023-10-08T16:36:25;18.9;66.9
78438;SHT31;67736;51.978;5.656;2023-10-08T16:38:56;18.8;66.8
78438;SHT31;67736;51.978;5.656;2023-10-08T16:41:26;18.8;66.8
78438;SHT31;67736;51.978;5.656;2023-10-08T16:43:55;18.8;66.9